createdAt,value
2019-05-02T00:01:56.402Z,36.80
2019-05-02T00:04:26.636Z,40.83
2019-05-02T00:07:05.728Z,32.03
2019-05-02T00:09:35.780Z,37.50
2019-05-02T00:12:07.106Z,37.23
2019-05-02T00:14:36.883Z,38.37
2019-05-02T00:17:06.002Z,28.13
2019-05-02T00:19:34.496Z,38.23
2019-05-02T00:22:03.329Z,35.88
2019-05-02T00:24:33.945Z,38.30
2019-05-02T00:27:03.184Z,37.60
2019-05-02T00:29:31.817Z,34.37
2019-05-02T00:32:00.402Z,41.10
2019-05-02T00:34:28.828Z,40.73
2019-05-02T00:36:57.278Z,35.17
2019-05-02T00:39:25.699Z,39.80
2019-05-02T00:41:54.319Z,39.80
2019-05-02T00:44:23.095Z,40.07
2019-05-02T00:46:53.198Z,44.20
2019-05-02T00:49:21.675Z,47.00
2019-05-02T00:51:50.226Z,45.40
2019-05-02T00:54:19.120Z,44.37
2019-05-02T00:56:48.777Z,42.93
2019-05-02T00:59:17.224Z,48.43
2019-05-02T01:01:59.994Z,46.10
2019-05-02T01:04:34.479Z,43.47
2019-05-02T01:07:04.833Z,44.47
2019-05-02T01:09:33.419Z,49.87
2019-05-02T01:12:03.044Z,46.07
2019-05-02T01:14:33.208Z,45.03
2019-05-02T01:17:01.806Z,48.73
2019-05-02T01:19:30.330Z,44.57
2019-05-02T01:21:58.824Z,52.50
2019-05-02T01:24:27.438Z,52.13
2019-05-02T01:27:12.309Z,49.70
2019-05-02T01:29:45.146Z,43.67
2019-05-02T01:32:25.176Z,40.90
2019-05-02T01:34:56.388Z,52.50
2019-05-02T01:37:38.782Z,46.07
2019-05-02T01:40:07.275Z,49.30
2019-05-02T01:42:40.025Z,46.83
2019-05-02T01:45:06.818Z,44.97
2019-05-02T01:47:36.209Z,48.77
2019-05-02T01:50:05.453Z,49.47
2019-05-02T01:52:33.891Z,47.07
2019-05-02T01:55:02.320Z,47.73
2019-05-02T01:57:30.747Z,50.27
2019-05-02T01:59:59.176Z,53.37
2019-05-02T02:02:28.065Z,48.87
2019-05-02T02:04:58.073Z,53.93
2019-05-02T02:07:26.568Z,49.03
2019-05-02T02:09:54.986Z,53.80
2019-05-02T02:12:23.480Z,48.83
2019-05-02T02:14:53.656Z,52.47
2019-05-02T02:17:22.071Z,50.05
2019-05-02T02:19:52.128Z,51.47
2019-05-02T02:22:22.666Z,52.57
2019-05-02T02:24:55.932Z,50.67
2019-05-02T02:27:25.898Z,53.97
2019-05-02T02:29:54.312Z,51.75
2019-05-02T02:32:27.132Z,49.48
2019-05-02T02:34:52.887Z,52.47
2019-05-02T02:37:21.338Z,56.37
2019-05-02T02:39:54.268Z,54.67
2019-05-02T02:42:25.091Z,52.23
2019-05-02T02:44:51.717Z,54.73
2019-05-02T02:47:21.261Z,58.07
2019-05-02T02:49:55.965Z,50.43
2019-05-02T02:52:20.155Z,44.57
2019-05-02T02:54:48.588Z,59.77
2019-05-02T02:57:25.940Z,56.25
2019-05-02T02:59:47.219Z,52.77
2019-05-02T03:02:15.708Z,56.23
2019-05-02T03:04:46.032Z,58.57
2019-05-02T03:07:24.184Z,50.27
2019-05-02T03:09:44.586Z,55.03
2019-05-02T03:12:20.700Z,52.75
2019-05-02T03:14:50.846Z,56.67
2019-05-02T03:17:25.777Z,58.23
2019-05-02T03:19:54.542Z,59.83
2019-05-02T03:22:19.780Z,70.20
2019-05-02T03:24:50.916Z,56.73
2019-05-02T03:27:19.413Z,62.87
2019-05-02T03:29:47.858Z,59.97
2019-05-02T03:32:32.226Z,62.13
2019-05-02T03:34:52.481Z,59.33
2019-05-02T03:37:17.871Z,66.05
2019-05-02T03:39:49.813Z,74.27
2019-05-02T03:42:16.583Z,69.67
2019-05-02T03:44:54.906Z,65.60
2019-05-02T03:47:15.314Z,61.70
2019-05-02T03:49:48.535Z,61.50
2019-05-02T03:52:14.348Z,68.20
2019-05-02T03:54:50.547Z,68.50
2019-05-02T03:57:12.990Z,63.70
2019-05-02T03:59:41.853Z,65.13
2019-05-02T04:02:13.882Z,65.47
2019-05-02T04:04:40.952Z,69.70
2019-05-02T04:07:09.865Z,63.40
2019-05-02T04:09:40.039Z,62.37
2019-05-02T04:12:18.961Z,61.67
2019-05-02T04:14:39.617Z,65.57
2019-05-02T04:17:10.358Z,65.50
2019-05-02T04:19:39.351Z,63.33
2019-05-02T04:22:11.771Z,67.90
2019-05-02T04:24:41.228Z,61.97
2019-05-02T04:27:09.790Z,68.22
2019-05-02T04:29:38.567Z,67.97
2019-05-02T04:32:11.629Z,66.23
2019-05-02T04:34:37.135Z,70.87
2019-05-02T04:37:05.586Z,72.57
2019-05-02T04:39:34.080Z,69.10
2019-05-02T04:42:05.294Z,72.23
2019-05-02T04:44:40.701Z,74.97
2019-05-02T04:47:10.956Z,75.30
2019-05-02T04:49:35.673Z,76.87
2019-05-02T04:52:10.336Z,73.07
2019-05-02T04:54:34.821Z,69.87
2019-05-02T04:57:03.279Z,71.33
2019-05-02T04:59:33.352Z,76.90
2019-05-02T05:02:01.969Z,76.87
2019-05-02T05:04:33.207Z,81.90
2019-05-02T05:07:01.226Z,78.70
2019-05-02T05:09:29.877Z,75.83
2019-05-02T05:12:01.321Z,75.73
2019-05-02T05:14:32.872Z,83.87
2019-05-02T05:16:58.617Z,92.20
2019-05-02T05:19:30.990Z,89.47
2019-05-02T05:22:04.442Z,86.60
2019-05-02T05:24:42.107Z,87.93
2019-05-02T05:27:08.310Z,96.00
2019-05-02T05:29:37.473Z,84.73
2019-05-02T05:32:09.847Z,90.03
2019-05-02T05:34:37.992Z,90.60
2019-05-02T05:37:09.341Z,80.57
2019-05-02T05:39:38.163Z,91.47
2019-05-02T05:42:08.385Z,85.63
2019-05-02T05:44:37.784Z,89.33
2019-05-02T05:47:07.456Z,84.00
2019-05-02T05:49:37.559Z,89.97
2019-05-02T05:52:08.102Z,83.47
2019-05-02T05:54:38.408Z,89.03
2019-05-02T05:57:07.577Z,88.57
2019-05-02T05:59:38.009Z,81.70
2019-05-02T06:02:12.715Z,77.07
2019-05-02T06:04:38.743Z,83.03
2019-05-02T06:07:07.315Z,80.57
2019-05-02T06:09:38.804Z,82.83
2019-05-02T06:12:07.259Z,80.83
2019-05-02T06:14:35.679Z,83.80
2019-05-02T06:17:04.162Z,82.60
2019-05-02T06:19:33.046Z,84.40
2019-05-02T06:22:01.457Z,85.37
2019-05-02T06:24:29.880Z,86.13
2019-05-02T06:26:58.302Z,76.83
2019-05-02T06:29:26.733Z,81.80
2019-05-02T06:31:56.763Z,88.20
2019-05-02T06:34:25.198Z,82.43
2019-05-02T06:36:55.156Z,84.37
2019-05-02T06:39:27.157Z,74.40
2019-05-02T06:41:57.385Z,86.33
2019-05-02T06:44:25.393Z,72.77
2019-05-02T06:46:54.009Z,79.80
2019-05-02T06:49:24.144Z,73.73
2019-05-02T06:51:56.250Z,75.07
2019-05-02T06:54:23.997Z,75.43
2019-05-02T06:56:52.680Z,75.10
2019-05-02T06:59:21.434Z,70.05
2019-05-02T07:01:52.299Z,75.53
2019-05-02T07:04:22.951Z,75.23
2019-05-02T07:06:58.471Z,83.65
2019-05-02T07:09:20.506Z,64.70
2019-05-02T07:11:56.972Z,61.08
2019-05-02T07:14:23.387Z,63.50
2019-05-02T07:16:54.563Z,54.40
2019-05-02T07:19:27.231Z,59.47
2019-05-02T07:21:58.578Z,52.00
2019-05-02T07:24:25.157Z,58.50
2019-05-02T07:26:56.923Z,52.90
2019-05-02T07:29:24.186Z,50.25
2019-05-02T07:31:53.629Z,54.67
2019-05-02T07:34:22.270Z,55.83
2019-05-02T07:36:50.712Z,58.53
2019-05-02T07:39:19.268Z,51.83
2019-05-02T07:41:48.867Z,56.30
2019-05-02T07:44:17.298Z,57.03
2019-05-02T07:46:51.889Z,57.70
2019-05-02T07:49:16.010Z,57.50
2019-05-02T07:51:44.438Z,56.10
2019-05-02T07:54:12.866Z,60.27
2019-05-02T07:56:41.300Z,55.30
2019-05-02T07:59:09.773Z,58.73
2019-05-02T08:01:39.248Z,61.13
2019-05-02T08:04:11.077Z,56.80
2019-05-02T08:06:40.192Z,63.10
2019-05-02T08:09:09.422Z,58.93
2019-05-02T08:11:38.535Z,56.47
2019-05-02T08:14:07.159Z,51.75
2019-05-02T08:16:35.683Z,53.70
2019-05-02T08:19:05.465Z,57.43
2019-05-02T08:21:34.627Z,58.53
2019-05-02T08:24:03.708Z,53.50
2019-05-02T08:26:43.078Z,55.03
2019-05-02T08:29:11.681Z,49.75
2019-05-02T08:31:40.097Z,53.97
2019-05-02T08:34:14.697Z,56.33
2019-05-02T08:36:38.686Z,53.43
2019-05-02T08:39:07.346Z,55.73
2019-05-02T08:41:35.798Z,54.65
2019-05-02T08:44:04.427Z,51.27
2019-05-02T08:46:32.976Z,55.87
2019-05-02T08:49:01.523Z,53.40
2019-05-02T08:51:29.952Z,49.40
2019-05-02T08:53:58.711Z,52.63
2019-05-02T08:56:27.293Z,48.10
2019-05-02T08:58:55.714Z,48.53
2019-05-02T09:01:34.626Z,49.67
2019-05-02T09:03:56.485Z,50.43
2019-05-02T09:06:24.525Z,50.83
2019-05-02T09:08:52.938Z,51.70
2019-05-02T09:11:21.383Z,48.13
2019-05-02T09:13:49.818Z,49.67
2019-05-02T09:16:23.720Z,45.83
2019-05-02T09:18:51.839Z,43.80
2019-05-02T09:21:18.634Z,49.20
2019-05-02T09:23:47.130Z,48.57
2019-05-02T09:26:15.651Z,48.30
2019-05-02T09:28:44.087Z,46.23
2019-05-02T09:31:15.021Z,46.67
2019-05-02T09:33:46.798Z,50.67
2019-05-02T09:36:13.606Z,48.20
2019-05-02T09:38:42.530Z,50.73
2019-05-02T09:41:18.811Z,50.17
2019-05-02T09:43:42.629Z,53.17
2019-05-02T09:46:12.770Z,52.43
2019-05-02T09:48:42.731Z,50.10
2019-05-02T09:51:17.009Z,43.87
2019-05-02T09:53:43.152Z,52.73
2019-05-02T09:56:12.672Z,53.90
2019-05-02T09:58:42.036Z,49.50
2019-05-02T10:01:18.161Z,48.10
2019-05-02T10:03:46.714Z,52.00
2019-05-02T10:06:18.145Z,48.90
2019-05-02T10:08:46.726Z,47.90
2019-05-02T10:11:17.129Z,49.23
2019-05-02T10:13:45.474Z,44.10
2019-05-02T10:16:18.092Z,48.83
2019-05-02T10:18:44.120Z,48.87
2019-05-02T10:21:16.934Z,45.50
2019-05-02T10:23:42.914Z,52.57
2019-05-02T10:26:14.657Z,47.70
2019-05-02T10:28:49.548Z,47.30
2019-05-02T10:31:12.740Z,42.60
2019-05-02T10:33:42.031Z,47.17
2019-05-02T10:36:13.700Z,45.47
2019-05-02T10:38:42.608Z,44.73
2019-05-02T10:41:12.035Z,48.80
2019-05-02T10:43:42.317Z,51.57
2019-05-02T10:46:15.314Z,48.53
2019-05-02T10:48:45.475Z,54.27
2019-05-02T10:51:31.697Z,55.95
2019-05-02T10:54:02.276Z,57.03
2019-05-02T10:56:32.436Z,53.70
2019-05-02T10:59:02.258Z,63.30
2019-05-02T11:01:32.464Z,61.07
2019-05-02T11:04:04.066Z,63.37
2019-05-02T11:06:32.522Z,66.73
2019-05-02T11:09:06.301Z,68.57
2019-05-02T11:11:33.332Z,73.80
2019-05-02T11:14:09.026Z,82.00
2019-05-02T11:16:57.402Z,76.50
2019-05-02T11:19:27.466Z,80.13
2019-05-02T11:21:58.971Z,75.80
2019-05-02T11:24:28.260Z,70.40
2019-05-02T11:26:56.684Z,73.87
2019-05-02T11:29:25.126Z,73.90
2019-05-02T11:31:55.287Z,76.93
2019-05-02T11:34:23.723Z,75.87
2019-05-02T11:36:52.715Z,80.73
2019-05-02T11:39:28.686Z,74.63
2019-05-02T11:41:52.701Z,71.30
2019-05-02T11:44:22.581Z,75.83
2019-05-02T11:46:54.330Z,71.23
2019-05-02T11:49:22.933Z,75.60
2019-05-02T11:51:52.711Z,72.37
2019-05-02T11:54:22.705Z,67.83
2019-05-02T11:56:53.344Z,65.23
2019-05-02T11:59:27.608Z,69.33
2019-05-02T12:01:59.466Z,62.33
2019-05-02T12:04:23.521Z,57.45
2019-05-02T12:07:01.130Z,63.60
2019-05-02T12:09:22.375Z,66.87
2019-05-02T12:11:54.992Z,58.87
2019-05-02T12:14:22.877Z,63.52
2019-05-02T12:16:52.775Z,62.97
2019-05-02T12:19:22.876Z,63.07
2019-05-02T12:21:55.609Z,63.23
2019-05-02T12:24:24.075Z,61.53
2019-05-02T12:26:52.886Z,69.30
2019-05-02T12:29:21.880Z,73.92
2019-05-02T12:31:52.676Z,72.77
2019-05-02T12:34:21.714Z,69.67
2019-05-02T12:36:51.790Z,75.67
2019-05-02T12:39:22.158Z,75.47
2019-05-02T12:41:53.312Z,69.97
2019-05-02T12:44:22.311Z,69.90
2019-05-02T12:46:51.784Z,68.87
2019-05-02T12:49:25.347Z,63.37
2019-05-02T12:51:52.387Z,61.13
2019-05-02T12:54:21.990Z,59.10
2019-05-02T12:56:52.617Z,60.17
2019-05-02T12:59:22.496Z,64.17
2019-05-02T13:01:51.823Z,64.70
2019-05-02T13:04:22.806Z,58.50
2019-05-02T13:06:52.852Z,57.50
2019-05-02T13:09:23.180Z,54.47
2019-05-02T13:11:53.078Z,53.63
2019-05-02T13:14:23.415Z,52.38
2019-05-02T13:16:53.394Z,46.03
2019-05-02T13:19:26.496Z,46.70
2019-05-02T13:21:59.360Z,41.53
2019-05-02T13:24:42.218Z,33.87
2019-05-02T13:27:12.651Z,33.40
2019-05-02T13:30:00.514Z,39.43
2019-05-02T13:32:32.094Z,32.77
2019-05-02T13:35:18.894Z,28.87
2019-05-02T13:37:48.624Z,29.53
2019-05-02T13:40:27.744Z,28.87
2019-05-02T13:42:58.433Z,32.17
2019-05-02T13:45:28.591Z,27.53
2019-05-02T13:47:57.146Z,29.80
2019-05-02T13:50:25.570Z,27.60
2019-05-02T13:52:57.854Z,22.93
2019-05-02T13:55:28.527Z,23.67
2019-05-02T13:57:57.026Z,21.50
2019-05-02T14:00:29.482Z,21.07
2019-05-02T14:02:57.923Z,19.77
2019-05-02T14:05:26.375Z,16.73
2019-05-02T14:08:12.977Z,16.53
2019-05-02T14:10:43.281Z,18.13
2019-05-02T14:13:12.475Z,15.50
2019-05-02T14:15:42.133Z,14.50
2019-05-02T14:18:12.406Z,14.33
2019-05-02T14:20:42.780Z,15.07
2019-05-02T14:23:12.142Z,12.88
2019-05-02T14:25:42.614Z,17.60
2019-05-02T14:28:12.945Z,14.53
2019-05-02T14:30:45.989Z,14.77
2019-05-02T14:33:13.082Z,13.00
2019-05-02T14:35:43.142Z,13.60
2019-05-02T14:38:13.455Z,15.55
2019-05-02T14:41:06.179Z,15.13
2019-05-02T14:43:53.078Z,17.07
2019-05-02T14:46:22.371Z,15.35
2019-05-02T14:48:52.233Z,15.90
2019-05-02T14:51:25.905Z,16.23
2019-05-02T14:53:52.597Z,18.37
2019-05-02T14:56:45.902Z,17.12
2019-05-02T14:59:17.898Z,23.43
2019-05-02T15:01:42.119Z,22.20
2019-05-02T15:04:12.814Z,23.73
2019-05-02T15:06:45.370Z,24.30
2019-05-02T15:09:12.058Z,26.23
2019-05-02T15:11:59.140Z,28.03
2019-05-02T15:14:29.515Z,28.10
2019-05-02T15:16:58.817Z,28.03
2019-05-02T15:19:27.400Z,22.73
2019-05-02T15:21:56.206Z,27.97
2019-05-02T15:24:27.772Z,26.47
2019-05-02T15:26:55.199Z,26.37
2019-05-02T15:29:27.121Z,28.57
2019-05-02T15:32:07.655Z,26.47
2019-05-02T15:34:55.745Z,23.17
2019-05-02T15:37:25.867Z,28.60
2019-05-02T15:42:25.795Z,24.33
2019-05-02T15:44:57.105Z,28.60
2019-05-02T15:47:24.779Z,24.13
2019-05-02T15:49:53.196Z,28.30
2019-05-02T15:52:33.725Z,25.30
2019-05-02T15:55:04.142Z,31.53
2019-05-02T15:57:38.014Z,26.03
2019-05-02T16:00:04.119Z,29.37
2019-05-02T16:02:32.992Z,29.50
2019-05-02T16:05:02.321Z,29.60
2019-05-02T16:07:32.595Z,30.13
2019-05-02T16:10:03.351Z,33.07
2019-05-02T16:12:32.147Z,27.27
2019-05-02T16:15:02.431Z,31.97
2019-05-02T16:17:33.435Z,29.57
2019-05-02T16:20:10.880Z,28.30
2019-05-02T16:22:46.357Z,28.43
2019-05-02T16:25:09.764Z,31.57
2019-05-02T16:27:48.267Z,26.20
2019-05-02T16:30:22.151Z,29.80
2019-05-02T16:32:52.352Z,27.97
2019-05-02T16:35:22.486Z,25.15
2019-05-02T16:37:54.425Z,20.30
2019-05-02T16:40:30.007Z,24.63
2019-05-02T16:42:53.042Z,18.47
2019-05-02T16:45:22.195Z,17.60
2019-05-02T16:47:58.588Z,16.70
2019-05-02T16:50:22.717Z,11.90
2019-05-02T16:52:53.080Z,11.77
2019-05-02T16:55:26.322Z,10.17
2019-05-02T16:57:56.738Z,11.00
2019-05-02T17:00:24.790Z,13.83
2019-05-02T17:02:53.209Z,9.87
2019-05-02T17:05:22.143Z,10.50
2019-05-02T17:07:52.862Z,7.30
2019-05-02T17:10:29.288Z,6.37
2019-05-02T17:13:00.283Z,8.97
2019-05-02T17:15:36.366Z,8.27
2019-05-02T17:18:12.959Z,7.33
2019-05-02T17:20:36.695Z,7.63
2019-05-02T17:23:07.553Z,7.53
2019-05-02T17:25:35.798Z,10.93
2019-05-02T17:28:10.392Z,11.90
2019-05-02T17:30:39.009Z,6.40
2019-05-02T17:33:11.461Z,10.03
2019-05-02T17:35:43.378Z,7.47
2019-05-02T17:38:07.363Z,6.37
2019-05-02T17:40:35.786Z,7.33
2019-05-02T17:43:06.979Z,7.00
2019-05-02T17:45:38.507Z,7.97
2019-05-02T17:48:10.311Z,6.30
2019-05-02T17:50:38.215Z,5.93
2019-05-02T17:53:07.885Z,8.13
2019-05-02T17:55:40.270Z,9.03
2019-05-02T17:58:12.252Z,9.70
2019-05-02T18:00:38.319Z,7.50
2019-05-02T18:03:07.007Z,9.30
2019-05-02T18:05:36.297Z,8.27
2019-05-02T18:08:10.424Z,7.57
2019-05-02T18:10:38.965Z,8.53
2019-05-02T18:13:07.416Z,10.83
2019-05-02T18:15:36.298Z,6.40
2019-05-02T18:18:06.906Z,5.92
2019-05-02T18:20:37.219Z,7.17
2019-05-02T18:23:06.031Z,7.50
2019-05-02T18:25:34.748Z,15.40
2019-05-02T18:28:03.174Z,7.20
2019-05-02T18:30:31.666Z,6.07
2019-05-02T18:33:03.550Z,8.00
2019-05-02T18:35:30.255Z,10.33
2019-05-02T18:37:59.254Z,7.13
2019-05-02T18:40:29.691Z,7.97
2019-05-02T18:43:02.200Z,7.37
2019-05-02T18:45:28.767Z,6.27
2019-05-02T18:48:02.484Z,7.95
2019-05-02T18:50:31.761Z,8.13
2019-05-02T18:53:00.281Z,7.60
2019-05-02T18:55:28.988Z,8.83
2019-05-02T18:58:02.503Z,7.93
2019-05-02T19:00:35.178Z,12.03
2019-05-02T19:02:57.927Z,6.90
2019-05-02T19:05:26.685Z,8.73
2019-05-02T19:07:56.489Z,5.97
2019-05-02T19:10:25.220Z,6.93
2019-05-02T19:12:56.014Z,7.25
2019-05-02T19:15:23.941Z,6.97
2019-05-02T19:17:52.934Z,4.67
2019-05-02T19:20:24.671Z,6.50
2019-05-02T19:22:56.775Z,7.70
2019-05-02T19:25:23.234Z,7.62
2019-05-02T19:27:57.616Z,8.17
2019-05-02T19:30:27.246Z,4.53
2019-05-02T19:32:57.828Z,6.67
2019-05-02T19:35:26.193Z,9.23
2019-05-02T19:37:55.099Z,7.67
2019-05-02T19:40:28.204Z,7.17
2019-05-02T19:42:57.358Z,7.20
2019-05-02T19:45:26.847Z,8.97
2019-05-02T19:47:57.704Z,11.40
2019-05-02T19:50:38.520Z,7.65
2019-05-02T19:53:04.304Z,7.20
2019-05-02T19:55:32.149Z,7.63
2019-05-02T19:58:02.416Z,7.47
2019-05-02T20:00:31.844Z,7.93
2019-05-02T20:03:01.799Z,9.03
2019-05-02T20:05:32.179Z,5.37
2019-05-02T20:08:02.399Z,6.83
2019-05-02T20:10:32.192Z,11.67
2019-05-02T20:13:03.192Z,7.43
2019-05-02T20:15:33.502Z,7.93
2019-05-02T20:18:04.672Z,8.63
2019-05-02T20:21:03.835Z,6.70
2019-05-02T20:23:35.549Z,10.70
2019-05-02T20:26:02.477Z,8.83
2019-05-02T20:28:31.748Z,11.43
2019-05-02T20:31:01.798Z,9.60
2019-05-02T20:33:32.437Z,7.37
2019-05-02T20:36:01.841Z,9.87
2019-05-02T20:38:32.422Z,8.90
2019-05-02T20:41:02.775Z,8.37
2019-05-02T20:43:32.254Z,11.47
2019-05-02T20:46:02.575Z,6.77
2019-05-02T20:48:33.044Z,10.37
2019-05-02T20:51:02.760Z,7.30
2019-05-02T20:53:34.083Z,8.13
2019-05-02T20:56:02.005Z,9.17
2019-05-02T20:58:32.465Z,8.60
2019-05-02T21:01:07.669Z,8.30
2019-05-02T21:03:32.003Z,11.27
2019-05-02T21:06:04.851Z,10.93
2019-05-02T21:08:34.785Z,10.23
2019-05-02T21:11:06.221Z,6.90
2019-05-02T21:13:35.000Z,9.40
2019-05-02T21:16:03.627Z,5.57
2019-05-02T21:18:32.801Z,8.10
2019-05-02T21:21:01.427Z,6.23
2019-05-02T21:23:41.989Z,7.33
2019-05-02T21:26:01.901Z,8.30
2019-05-02T21:28:32.195Z,9.07
2019-05-02T21:31:02.799Z,9.00
2019-05-02T21:33:39.695Z,10.73
2019-05-02T21:36:08.582Z,7.17
2019-05-02T21:38:37.469Z,9.80
2019-05-02T21:41:11.113Z,6.87
2019-05-02T21:43:39.631Z,8.50
2019-05-02T21:46:08.244Z,8.90
2019-05-02T21:48:36.801Z,8.13
2019-05-02T21:51:09.817Z,10.40
2019-05-02T21:53:41.580Z,9.57
2019-05-02T21:56:17.380Z,9.85
2019-05-02T21:59:03.024Z,8.07
2019-05-02T22:01:32.998Z,8.67
2019-05-02T22:04:02.266Z,9.33
2019-05-02T22:06:32.255Z,5.13
2019-05-02T22:09:02.905Z,6.77
2019-05-02T22:11:32.027Z,7.73
2019-05-02T22:14:02.398Z,7.70
2019-05-02T22:16:32.682Z,8.73
2019-05-02T22:19:02.867Z,8.53
2019-05-02T22:21:34.673Z,9.30
2019-05-02T22:24:08.988Z,10.47
2019-05-02T22:26:32.783Z,11.63
2019-05-02T22:29:02.067Z,11.00
2019-05-02T22:31:32.371Z,14.43
2019-05-02T22:34:02.143Z,12.67
2019-05-02T22:36:32.660Z,16.33
2019-05-02T22:39:19.820Z,17.00
2019-05-02T22:41:48.296Z,15.40
2019-05-02T22:44:16.840Z,15.30
2019-05-02T22:46:46.128Z,14.47
2019-05-02T22:49:15.114Z,17.33
2019-05-02T22:51:44.242Z,13.20
2019-05-02T22:54:24.245Z,14.27
2019-05-02T22:56:43.358Z,15.08
2019-05-02T22:59:11.909Z,12.82
2019-05-02T23:01:42.162Z,15.47
2019-05-02T23:04:12.725Z,12.05
2019-05-02T23:06:43.838Z,11.80
2019-05-02T23:09:12.644Z,10.78
2019-05-02T23:11:42.628Z,17.30
2019-05-02T23:14:11.591Z,8.87
2019-05-02T23:16:42.766Z,14.07
2019-05-02T23:19:12.275Z,14.40
2019-05-02T23:21:42.189Z,11.07
2019-05-02T23:24:14.642Z,11.08
2019-05-02T23:26:56.753Z,14.23
2019-05-02T23:29:26.953Z,15.87
2019-05-02T23:31:55.500Z,10.57
2019-05-02T23:34:23.988Z,15.13
2019-05-02T23:36:52.552Z,11.47
2019-05-02T23:39:21.360Z,11.30
2019-05-02T23:41:49.904Z,11.97
2019-05-02T23:44:18.535Z,11.70
2019-05-02T23:46:47.004Z,9.93
2019-05-02T23:49:15.555Z,12.55
2019-05-02T23:51:44.123Z,13.03
2019-05-02T23:54:13.061Z,11.93
2019-05-02T23:56:43.069Z,10.70
2019-05-02T23:59:12.193Z,11.10
